Conejos, Valles Caldera, New Mexico Weather observations

Data are for 10 minute period ending at time listed.
 Day   Time   Solar   Ave.   Ave.  Ave.  Vector  Max.   Baro.   Total    
  of    of     Rad.   Air    Rel.  Wind   Wind   Wind  Press.  Precip.   
Year   Day            Temp.  Hum.  Speed  Dir.   Gust                    
2015   (MST)  Kw/m2    F      %     mph   deg.    mph    mb.     in.     
-------------------------------------------------------------------------
 144   11:30   0.34   46.3    63    3.8    10     6.6   99999.0    0.00 
 144   11:40   0.28   45.6    64    4.1   359     7.2   99999.0    0.00 
 144   11:50   0.38   45.2    65    3.8    31     7.8   99999.0    0.00 
 144   12:00   0.40   46.4    63    3.5     1     6.0   99999.0    0.00 
 144   12:10   0.33   45.7    65    4.3     4     7.2   99999.0    0.00 
 144   12:20   0.68   46.7    65    3.5    12     7.2   99999.0    0.00 
 144   12:30   0.66   48.1    61    5.0    13    11.3   99999.0    0.00 
 144   12:40   0.86   47.6    62    4.4   352     9.0   99999.0    0.00 
 144   12:50   0.62   49.3    59    4.1    18     7.8   99999.0    0.00 
 144   13:00   0.42   47.9    60    4.6   354     9.0   99999.0    0.00 
 144   13:10   0.30   46.9    62    4.6   348     9.0   99999.0    0.00 
 144   13:20   0.42   47.7    60    4.6   347     9.3   99999.0    0.00 
 144   13:30   0.43   47.9    59    4.8    16    11.3   99999.0    0.00 
 144   13:40   0.17   48.7    56    4.0    18     7.8   99999.0    0.00 
 144   13:50   0.22   47.5    59    4.2     7     9.6   99999.0    0.00 
 144   14:00   0.28   48.4    57    4.8     6    15.5   99999.0    0.00 
 144   14:10   0.18   47.6    58    4.5   358     9.6   99999.0    0.00 
 144   14:20   0.15   47.6    59    2.8    37     7.8   99999.0    0.00 
 144   14:30   0.25   48.6    58    3.6   108     8.4   99999.0    0.00 
 144   14:40   0.22   49.5    55    3.9    75     7.8   99999.0    0.00 
 144   14:50   0.24   50.6    54    3.8   114     7.8   99999.0    0.00 
 144   15:00   0.47   50.8    52    4.1    30     8.4   99999.0    0.00 
 144   15:10   0.56   52.2    50    4.4    40    10.8   99999.0    0.00 
 144   15:20   0.70   53.2    49    4.4    22    10.8   99999.0    0.00 
 144   15:30   0.56   53.1    48    4.5    55    11.9   99999.0    0.00 
 144   15:40   0.56   52.6    49    4.5     7     9.6   99999.0    0.00 
 144   15:50   0.48   52.4    50    4.4    28     8.4   99999.0    0.00 
 144   16:00   0.19   50.5    53    4.6    12     9.0   99999.0    0.00 
 144   16:10   0.24   49.4    55    5.2   357    10.8   99999.0    0.00 
 144   16:20   0.16   49.6    55    5.4   327    10.8   99999.0    0.00 
 144   16:30   0.16   49.2    58    3.9   308     7.8   99999.0    0.00 
 144   16:40   0.15   47.8    63    3.0   307     7.8   99999.0    0.00 
 144   16:50   0.16   47.8    62    3.8   321     9.0   99999.0    0.01 
 144   17:00   0.30   47.8    58    5.1   324     9.6   99999.0    0.00 
 144   17:10   0.07   48.3    57    5.6   332    13.7   99999.0    0.00 
 144   17:20   0.03   48.2    56    5.6   333    10.2   99999.0    0.00 
 144   17:30   0.04   47.9    57    4.8   317     9.0   99999.0    0.00 
 144   17:40   0.02   47.6    56    5.0   328    10.2   99999.0    0.00 
 144   17:50   0.03   47.9    56    5.0   345     9.0   99999.0    0.00 
 144   18:00   0.04   47.8    55    3.7   325    10.2   99999.0    0.00 
 144   18:10   0.04   47.7    56    3.8   334     7.2   99999.0    0.00 
 144   18:20   0.02   47.5    57    4.0   310    14.3   99999.0    0.00 
 144   18:30   0.02   47.1    60    2.2   281     4.8   99999.0    0.00 
 144   18:40   0.01   46.5    62    2.0   250     4.8   99999.0    0.00 
 144   18:50   0.01   46.0    64    1.9   130     3.6   99999.0    0.00 
 144   19:00   0.01   45.3    66    2.6   319     6.6   99999.0    0.00 
 144   19:10   0.00   45.2    66    2.8   309     8.4   99999.0    0.00 
 144   19:20   0.00   44.7    67    1.1   348     3.6   99999.0    0.00 
 144   19:30   0.00   43.8    69    1.0   302     3.0   99999.0    0.00 
 144   19:40   0.00   43.7    70    2.2   292     6.0   99999.0    0.00 
 144   19:50   0.00   43.5    70    1.6   305     4.2   99999.0    0.00 
 144   20:00   0.00   42.6    72    1.3   312     3.0   99999.0    0.00 
 144   20:10   0.00   42.1    73    1.9   309     4.2   99999.0    0.00 
 144   20:20   0.00   42.5    73    1.9   314     3.6   99999.0    0.00 
 144   20:30   0.00   43.0    72    2.1   325     5.4   99999.0    0.00 
 144   20:40   0.00   41.6    75    2.0   325     3.0   99999.0    0.00 
 144   20:50   0.00   40.8    77    2.0   316     3.6   99999.0    0.00 
 144   21:00   0.00   41.7    76    1.4   328     3.0   99999.0    0.00 
 144   21:10   0.00   41.9    75    2.2   322     4.8   99999.0    0.00 
 144   21:20   0.00   41.3    76    2.0   324     3.6   99999.0    0.00 
 144   21:30   0.00   41.1    77    2.4   327     4.2   99999.0    0.00 
 144   21:40   0.00   40.9    78    2.6   332     4.8   99999.0    0.00 
 144   21:50   0.00   40.9    79    3.0   335     4.8   99999.0    0.00 
 144   22:00   0.00   41.2    78    2.9   332     4.8   99999.0    0.00 
 144   22:10   0.00   41.7    77    2.0   339     3.6   99999.0    0.00 
 144   22:20   0.00   42.6    73    2.6   350     4.8   99999.0    0.00 
 144   22:30   0.00   43.2    71    2.4   344     4.8   99999.0    0.00 
 144   22:40   0.00   43.0    73    0.9    58     3.0   99999.0    0.00 
 144   22:50   0.00   42.3    76    0.7   137     1.8   99999.0    0.00 
 144   23:00   0.00   42.0    76    3.8   170     7.2   99999.0    0.00 
 144   23:10   0.00   41.6    77    2.3   174     4.8   99999.0    0.00 
 144   23:20   0.00   41.4    77    1.2   180     3.0   99999.0    0.00 
 144   23:30   0.00   41.0    80    0.6    83     1.8   99999.0    0.00 
 144   23:40   0.00   40.1    82    0.8   202     3.0   99999.0    0.00 
 144   23:50   0.00   39.5    84    0.6   314     1.8   99999.0    0.00 
 145    0:00   0.00   39.5    85    0.5   356     1.8   99999.0    0.00 
 145    0:10   0.00   39.6    85    0.7     5     1.8   99999.0    0.00 
 145    0:20   0.00   39.8    85    0.4    20     1.8   99999.0    0.00 
 145    0:30   0.00   40.0    84    1.3   137     4.8   99999.0    0.00 
 145    0:40   0.00   39.9    86    1.1    99     2.4   99999.0    0.00 
 145    0:50   0.00   39.7    88    0.9    24     2.4   99999.0    0.00 
 145    1:00   0.00   39.5    90    0.1   146     1.2   99999.0    0.00 
 145    1:10   0.00   39.3    91    1.3     5     3.0   99999.0    0.00 
 145    1:20   0.00   39.2    93    1.0    16     1.8   99999.0    0.00 
 145    1:30   0.00   38.8    93    0.1   249     1.2   99999.0    0.00 
 145    1:40   0.00   38.0    94    0.6   325     1.8   99999.0    0.00 
 145    1:50   0.00   37.2    94    0.5   331     1.8   99999.0    0.00 
 145    2:00   0.00   36.5    94    0.0     0     0.0   99999.0    0.00 
 145    2:10   0.00   36.2    95    0.1   238     1.2   99999.0    0.00 
 145    2:20   0.00   36.2    95    0.6   343     2.4   99999.0    0.00 
 145    2:30   0.00   36.8    96    2.6   334     4.8   99999.0    0.00 
 145    2:40   0.00   38.7    91    3.4   328     9.0   99999.0    0.00 
 145    2:50   0.00   39.5    88    4.0   333     6.6   99999.0    0.00 
 145    3:00   0.00   39.1    88    3.0   322     6.6   99999.0    0.00 
 145    3:10   0.00   39.3    87    2.8   323     5.4   99999.0    0.00 
 145    3:20   0.00   39.3    87    2.5   319     6.0   99999.0    0.00 
 145    3:30   0.00   39.4    85    1.6   319     5.4   99999.0    0.00 
 145    3:40   0.00   39.1    86    1.6    13     3.6   99999.0    0.00 
 145    3:50   0.00   39.2    86    1.2   324     3.0   99999.0    0.00 
 145    4:00   0.00   39.1    85    1.3   341     3.0   99999.0    0.00 
 145    4:10   0.00   39.6    84    2.6   311     4.8   99999.0    0.00 
 145    4:20   0.00   39.6    84    1.7   322     3.6   99999.0    0.00 
 145    4:30   0.00   39.0    85    2.0   314     4.2   99999.0    0.00 
 145    4:40   0.00   38.7    85    3.0   323     9.0   99999.0    0.00 
 145    4:50   0.00   38.2    86    3.2   322     6.0   99999.0    0.00 
 145    5:00   0.00   38.3    87    3.4   325     6.6   99999.0    0.00 
 145    5:10   0.00   38.3    87    3.4   320     6.6   99999.0    0.00 
 145    5:20   0.01   38.1    87    2.6   320     4.2   99999.0    0.00 
 145    5:30   0.01   37.7    88    2.9   330     4.8   99999.0    0.00 
 145    5:40   0.02   37.4    89    2.3   340     4.8   99999.0    0.00 
 145    5:50   0.03   37.6    88    2.5   336     3.6   99999.0    0.00 
 145    6:00   0.05   38.0    88    3.1   331     4.8   99999.0    0.00 
 145    6:10   0.07   38.8    86    3.0   338     4.8   99999.0    0.00 
 145    6:20   0.10   39.3    84    3.0   333     4.8   99999.0    0.00 
 145    6:30   0.07   41.0    79    3.5   337     6.6   99999.0    0.00 
 145    6:40   0.08   42.5    74    2.8   322     5.4   99999.0    0.00 
 145    6:50   0.06   43.3    72    3.1   304    11.3   99999.0    0.00 
 145    7:00   0.05   43.8    71    2.2   291     4.8   99999.0    0.00 
 145    7:10   0.05   44.6    71    2.4   330     4.8   99999.0    0.00 
 145    7:20   0.25   44.9    71    2.5   336     7.2   99999.0    0.00 
 145    7:30   0.19   45.3    70    2.7    13     5.4   99999.0    0.00 
 145    7:40   0.19   45.8    70    2.2   259     4.8   99999.0    0.00 
 145    7:50   0.16   46.0    68    3.0   311     7.2   99999.0    0.00 
 145    8:00   0.47   46.2    67    2.9   287     8.4   99999.0    0.00 
 145    8:10   0.65   46.8    66    3.1   299     9.0   99999.0    0.00 
 145    8:20   0.47   47.2    68    2.9   343     5.4   99999.0    0.00 
 145    8:30   0.47   47.7    67    2.6   263     4.8   99999.0    0.00 
 145    8:40   0.22   47.0    66    2.1   319     5.4   99999.0    0.00 
 145    8:50   0.35   47.3    67    2.8    11     6.6   99999.0    0.00 
 145    9:00   0.71   48.6    65    2.8    42     5.4   99999.0    0.00 
 145    9:10   0.57   49.5    62    2.8    11     5.4   99999.0    0.00 
 145    9:20   0.79   51.3    56    3.4    50     7.5   99999.0    0.00 
 145    9:30   0.85   50.9    54    3.7   315     7.8   99999.0    0.00 
 145    9:40   0.70   51.5    53    3.4    16     7.8   99999.0    0.00 
 145    9:50   0.64   51.3    50    4.3   355     6.6   99999.0    0.00 
 145   10:00   0.72   51.2    51    3.4   338     6.6   99999.0    0.00 
 145   10:10   0.54   52.3    49    3.3   345     6.6   99999.0    0.00 
 145   10:20   0.85   52.5    48    3.4    11     8.4   99999.0    0.00 
 145   10:30   1.02   53.1    46    5.0   342     9.0   99999.0    0.00 
 145   10:40   0.94   52.8    47    4.7   342     9.0   99999.0    0.00 
 145   10:50   1.06   53.7    42    4.0   312     7.2   99999.0    0.00 
 145   11:00   1.05   55.4    42    3.9   132     8.7   99999.0    0.00 
 145   11:10   1.07   55.9    40    4.3   298     9.6   99999.0    0.00 
 145   11:20   1.12   56.1    40    3.8   321     7.2   99999.0    0.00 

Return to Conejos, Valles Caldera graphs page.


Western Regional Climate Center,wrcc@dri.edu